Terminal Aerodrome Forecast
Issued by NWS Wilmington, OH

Current Version | Previous Version | Text Only | Print | Product List | Glossary Off
Versions: 1 2 3 4 5 6 7 8 9 10 11 12 13 14 15 16 17 18 19

000
FTUS41 KILN 300405 AAA
TAFCMH
TAF AMD
KCMH 300405Z 3004/3024 00000KT P6SM VCSH SCT012 BKN080 OVC130
     FM300600 08010KT 2SM BR VCSH OVC004
     FM301200 10010KT 3SM BR VCSH OVC009
     FM301600 12009KT P6SM -SHRA VCTS SCT015CB BKN035
     FM301900 12007KT P6SM -SHRA BKN035=

USA.gov is the U.S. government's official web portal to all federal, state and local government web resources and services.